Time;durP1;ratioP1;P1;durP2;ratioP2;P2;SDS_P1;SDS_P2;PMS_P1;PMS_P2;Temp;Humidity;BMP_temperature;BMP_pressure;BME280_temperature;BME280_humidity;BME280_pressure;Samples;Min_cycle;Max_cycle;Signal;HPM_P1;HPM_P2
2022/11/01 00:01:57;;;;;;;11.53;6.63;;;12.20;99.90;12.20;100537.00;;;;4903733;28;87250;-66
2022/11/01 00:04:23;;;;;;;9.67;6.03;;;12.20;99.90;12.20;100535.00;;;;4901473;28;109328;-66
2022/11/01 00:06:49;;;;;;;7.93;5.97;;;12.20;99.90;12.20;100535.00;;;;4898111;28;116144;-67
2022/11/01 00:09:15;;;;;;;10.43;6.20;;;12.20;99.90;12.20;100541.00;;;;4903433;28;94554;-66
2022/11/01 00:11:41;;;;;;;6.87;5.97;;;12.20;99.90;12.20;100540.00;;;;4899176;28;98632;-67
2022/11/01 00:14:07;;;;;;;8.40;6.13;;;12.20;99.90;12.20;100548.00;;;;4901316;28;117469;-67
2022/11/01 00:16:33;;;;;;;10.17;6.77;;;12.20;99.90;12.20;100537.00;;;;4894629;28;116818;-67
2022/11/01 00:18:58;;;;;;;6.27;5.20;;;12.20;99.90;12.20;100537.00;;;;4900564;28;87755;-67
2022/11/01 00:21:24;;;;;;;11.33;6.27;;;12.20;99.90;12.20;100533.00;;;;4901277;28;87756;-67
2022/11/01 00:23:50;;;;;;;7.20;5.07;;;12.20;99.90;12.20;100534.00;;;;4906211;28;107347;-66
2022/11/01 00:26:21;;;;;;;8.50;5.77;;;12.20;99.90;12.20;100535.00;;;;4898119;28;88110;-67
2022/11/01 00:28:48;;;;;;;6.10;4.40;;;12.20;99.90;12.20;100543.00;;;;4899630;28;87773;-67
2022/11/01 00:31:15;;;;;;;5.80;5.23;;;12.20;99.90;12.20;100536.00;;;;4899734;28;101832;-66
2022/11/01 00:33:41;;;;;;;7.87;5.17;;;12.20;99.90;12.10;100535.00;;;;4899192;28;89257;-65
2022/11/01 00:36:08;;;;;;;6.50;5.50;;;12.10;99.90;12.10;100523.00;;;;4900194;28;108036;-67
2022/11/01 00:38:34;;;;;;;10.37;5.47;;;12.10;99.90;12.10;100524.00;;;;4898087;28;87797;-66
2022/11/01 00:41:02;;;;;;;9.63;5.20;;;12.10;99.90;12.10;100534.00;;;;4899359;28;108811;-67
2022/11/01 00:43:32;;;;;;;9.40;5.57;;;12.10;99.90;12.00;100529.00;;;;4902357;28;89081;-67
2022/11/01 00:45:59;;;;;;;8.67;5.13;;;12.10;99.90;12.00;100518.00;;;;4897558;28;88435;-67
2022/11/01 00:48:25;;;;;;;6.70;5.27;;;12.10;99.90;12.00;100523.00;;;;4898627;28;87866;-67
2022/11/01 00:50:50;;;;;;;8.63;5.80;;;12.00;99.90;12.00;100518.00;;;;4899407;28;87226;-67
2022/11/01 00:53:16;;;;;;;7.57;6.30;;;12.00;99.90;11.90;100513.00;;;;4900774;28;111833;-68
2022/11/01 00:55:42;;;;;;;6.47;5.47;;;11.90;99.90;11.90;100509.00;;;;4898745;28;115866;-67
2022/11/01 00:58:08;;;;;;;10.17;7.57;;;11.90;99.90;11.80;100498.00;;;;4899796;28;95702;-67
2022/11/01 01:00:34;;;;;;;6.60;5.93;;;11.80;99.90;11.70;100499.00;;;;4898706;28;87929;-67
2022/11/01 01:03:01;;;;;;;6.47;5.83;;;11.80;99.90;11.70;100501.00;;;;4897921;28;88056;-67
2022/11/01 01:05:27;;;;;;;5.83;5.00;;;11.70;99.90;11.70;100493.00;;;;4901369;28;102806;-67
2022/11/01 01:07:52;;;;;;;8.20;6.07;;;11.70;99.90;11.60;100498.00;;;;4899058;28;110652;-67
2022/11/01 01:10:18;;;;;;;7.50;6.03;;;11.60;99.90;11.60;100483.00;;;;4898637;28;108194;-67
2022/11/01 01:12:44;;;;;;;10.03;6.47;;;11.60;99.90;11.50;100489.00;;;;4896640;28;116949;-67
2022/11/01 01:15:10;;;;;;;7.83;5.33;;;11.60;99.90;11.50;100484.00;;;;4901119;28;87566;-67
2022/11/01 01:17:36;;;;;;;7.33;5.10;;;11.50;99.90;11.40;100483.00;;;;4900416;28;87806;-67
2022/11/01 01:20:01;;;;;;;8.03;5.77;;;11.50;99.90;11.40;100496.00;;;;4902639;28;108787;-67
2022/11/01 01:22:27;;;;;;;8.80;6.63;;;11.40;99.90;11.40;100490.00;;;;4896511;28;116344;-67
2022/11/01 01:24:53;;;;;;;7.13;6.20;;;11.40;99.90;11.30;100482.00;;;;4899608;28;117640;-67
2022/11/01 01:27:20;;;;;;;7.50;5.93;;;11.30;99.90;11.30;100474.00;;;;4900100;28;111346;-68
2022/11/01 01:29:45;;;;;;;9.57;6.17;;;11.30;99.90;11.20;100478.00;;;;4900762;28;88416;-67
2022/11/01 01:32:20;;;;;;;8.30;5.77;;;11.30;99.90;11.20;100476.00;;;;4897272;28;118749;-67
2022/11/01 01:34:45;;;;;;;10.40;7.00;;;11.30;99.90;11.10;100478.00;;;;4903933;28;88097;-67
2022/11/01 01:37:13;;;;;;;7.13;6.43;;;11.20;99.90;11.10;100468.00;;;;4896788;28;96307;-67
2022/11/01 01:39:39;;;;;;;8.73;6.20;;;11.10;99.90;11.00;100460.00;;;;4899896;28;87106;-67
2022/11/01 01:42:32;;;;;;;8.37;5.23;;;11.10;99.90;10.90;100455.00;;;;4903072;28;107935;-66
2022/11/01 01:44:58;;;;;;;5.70;5.17;;;11.10;99.90;10.90;100463.00;;;;4894253;28;110715;-66
2022/11/01 01:47:34;;;;;;;7.43;6.17;;;11.00;99.90;10.90;100455.00;;;;4901337;28;111534;-67
2022/11/01 01:50:28;;;;;;;10.13;7.47;;;11.00;99.90;10.80;100442.00;;;;4905986;28;87872;-67
2022/11/01 01:52:57;;;;;;;10.73;6.97;;;10.90;99.90;10.80;100436.00;;;;4903166;28;88047;-66
2022/11/01 01:55:39;;;;;;;5.77;4.63;;;10.80;99.90;10.80;100445.00;;;;4900280;28;87881;-66
2022/11/01 01:58:07;;;;;;;7.37;5.30;;;10.80;99.90;10.70;100444.00;;;;4898957;28;88000;-67
2022/11/01 02:00:32;;;;;;;8.73;6.40;;;10.80;99.90;10.70;100443.00;;;;4902392;28;91427;-66
2022/11/01 02:02:58;;;;;;;8.27;5.43;;;10.80;99.90;10.60;100441.00;;;;4902566;28;117331;-67
2022/11/01 02:05:42;;;;;;;9.97;6.03;;;10.70;99.90;10.60;100441.00;;;;4899665;28;116556;-67
2022/11/01 02:08:09;;;;;;;9.83;6.80;;;10.70;99.90;10.50;100434.00;;;;4916378;28;88007;-66
2022/11/01 02:10:35;;;;;;;9.63;6.50;;;10.60;99.90;10.50;100431.00;;;;4901350;28;109441;-68
2022/11/01 02:13:00;;;;;;;7.80;6.57;;;10.60;99.90;10.50;100429.00;;;;4900740;28;100856;-67
2022/11/01 02:15:45;;;;;;;8.27;6.67;;;10.50;99.90;10.40;100436.00;;;;4903432;28;118353;-66
2022/11/01 02:18:34;;;;;;;5.93;5.03;;;10.50;99.90;10.30;100419.00;;;;4912149;28;104361;-67
2022/11/01 02:21:26;;;;;;;7.17;5.63;;;10.40;99.90;10.30;100432.00;;;;4901345;28;87798;-68
2022/11/01 02:24:35;;;;;;;5.57;4.50;;;10.40;99.90;10.20;100421.00;;;;4901696;28;109845;-68
2022/11/01 02:27:42;;;;;;;7.63;5.80;;;10.40;99.90;10.20;100425.00;;;;4903856;28;87895;-67
2022/11/01 02:30:17;;;;;;;6.33;5.70;;;10.30;99.90;10.20;100433.00;;;;4900876;28;87970;-67
2022/11/01 02:33:04;;;;;;;8.00;5.67;;;10.30;99.90;10.10;100427.00;;;;4900056;28;87215;-68
2022/11/01 02:35:50;;;;;;;9.37;6.83;;;10.20;99.90;10.10;100436.00;;;;4899287;28;87611;-67
2022/11/01 02:38:33;;;;;;;5.33;3.83;;;10.20;99.90;10.00;100433.00;;;;4904436;28;87787;-67
2022/11/01 02:41:26;;;;;;;6.90;5.20;;;10.10;99.90;9.90;100434.00;;;;4913947;28;95478;-67
2022/11/01 02:44:01;;;;;;;4.87;4.40;;;10.10;99.90;9.90;100437.00;;;;4902965;28;95448;-67
2022/11/01 02:49:18;;;;;;;8.57;4.27;;;10.00;99.90;9.80;100446.00;;;;4897293;28;87671;-67
2022/11/01 02:51:45;;;;;;;5.07;3.53;;;9.90;99.90;9.70;100441.00;;;;4913619;28;109221;-67
2022/11/01 02:54:39;;;;;;;6.00;4.03;;;10.20;99.90;9.70;100433.00;;;;4900473;28;99936;-69
2022/11/01 02:57:31;;;;;;;5.00;3.63;;;9.80;99.90;9.60;100431.00;;;;4898277;28;90190;-68
2022/11/01 03:00:03;;;;;;;5.70;5.20;;;9.80;99.90;9.60;100431.00;;;;4916714;28;98514;-68
2022/11/01 03:02:43;;;;;;;5.63;3.93;;;9.70;99.90;9.60;100420.00;;;;4900479;28;88257;-68
2022/11/01 03:05:15;;;;;;;7.77;5.10;;;9.70;99.90;9.50;100430.00;;;;4902137;28;107716;-68
2022/11/01 03:07:46;;;;;;;5.03;4.53;;;9.60;99.90;9.50;100431.00;;;;4902533;28;89246;-68
2022/11/01 03:10:12;;;;;;;6.40;4.60;;;9.60;99.90;9.50;100432.00;;;;4898152;28;88730;-68
2022/11/01 03:13:02;;;;;;;7.13;5.67;;;9.60;99.90;9.40;100429.00;;;;4900448;28;104817;-68
2022/11/01 03:15:32;;;;;;;7.53;4.37;;;9.50;99.90;9.40;100415.00;;;;4913562;28;96829;-68
2022/11/01 03:18:04;;;;;;;4.63;3.80;;;9.50;99.90;9.30;100411.00;;;;4900442;28;100294;-68
2022/11/01 03:20:48;;;;;;;6.27;5.00;;;9.40;99.90;9.30;100415.00;;;;4904178;28;88559;-68
2022/11/01 03:23:27;;;;;;;6.40;3.83;;;9.40;99.90;9.20;100423.00;;;;4898820;28;87757;-69
2022/11/01 03:25:56;;;;;;;7.50;4.67;;;9.30;99.90;9.20;100407.00;;;;4899933;28;87091;-68
2022/11/01 03:28:38;;;;;;;7.03;4.73;;;9.30;99.90;9.10;100401.00;;;;4900066;28;110425;-68
2022/11/01 03:31:13;;;;;;;7.03;5.07;;;9.30;99.90;9.10;100404.00;;;;4914547;28;87566;-69
2022/11/01 03:33:46;;;;;;;6.40;4.50;;;9.20;99.90;9.10;100404.00;;;;4898589;28;105804;-69
2022/11/01 03:36:17;;;;;;;6.07;3.87;;;9.20;99.90;9.00;100409.00;;;;4895612;28;88185;-68
2022/11/01 03:38:50;;;;;;;6.57;4.30;;;9.10;99.90;9.00;100411.00;;;;4898768;28;88860;-68
2022/11/01 03:41:18;;;;;;;3.97;3.50;;;9.20;99.90;9.00;100409.00;;;;4900900;28;88149;-68
2022/11/01 03:43:46;;;;;;;7.03;4.37;;;9.10;99.90;9.00;100409.00;;;;4919876;28;109550;-68
2022/11/01 03:46:13;;;;;;;4.90;4.40;;;9.10;99.90;9.00;100404.00;;;;4898887;28;87787;-68
2022/11/01 03:48:40;;;;;;;5.00;3.20;;;9.10;99.90;8.90;100422.00;;;;4902080;28;88824;-68
2022/11/01 03:51:06;;;;;;;4.90;4.23;;;9.10;99.90;8.90;100437.00;;;;4901830;28;105249;-69
2022/11/01 03:53:31;;;;;;;4.10;3.40;;;9.00;99.90;8.90;100445.00;;;;4900147;28;87845;-69
2022/11/01 03:55:57;;;;;;;6.77;3.77;;;9.00;99.90;8.90;100445.00;;;;4897903;28;105257;-70
2022/11/01 03:58:23;;;;;;;5.77;3.87;;;9.00;99.90;8.90;100437.00;;;;4898914;28;118110;-69
2022/11/01 04:00:49;;;;;;;4.93;4.53;;;9.00;99.90;8.90;100428.00;;;;4899368;28;118464;-69
2022/11/01 04:03:15;;;;;;;4.63;3.80;;;9.00;99.90;8.90;100428.00;;;;4903409;28;87821;-69
2022/11/01 04:05:41;;;;;;;4.80;3.50;;;9.00;99.90;8.90;100425.00;;;;4904856;28;87785;-70
2022/11/01 04:08:09;;;;;;;6.43;4.83;;;9.00;99.90;8.90;100429.00;;;;4879840;28;97417;-69
2022/11/01 04:10:35;;;;;;;4.53;3.90;;;9.00;99.90;8.90;100434.00;;;;4898731;28;88740;-69
2022/11/01 04:13:01;;;;;;;6.73;4.30;;;9.00;99.90;8.90;100453.00;;;;4901012;28;110369;-69
2022/11/01 04:21:22;;;;;;;6.07;3.87;;;8.90;99.90;8.80;100441.00;;;;4904463;28;87890;-70
2022/11/01 04:23:48;;;;;;;5.53;3.70;;;9.00;99.90;8.80;100445.00;;;;4900290;28;103358;-69
2022/11/01 04:26:20;;;;;;;5.10;4.60;;;9.00;99.90;8.90;100450.00;;;;4903571;28;95523;-70
2022/11/01 04:28:58;;;;;;;5.07;3.30;;;8.90;99.90;8.90;100436.00;;;;4896735;28;88845;-69
2022/11/01 04:31:35;;;;;;;6.17;3.83;;;8.80;99.90;8.90;100442.00;;;;4897388;28;87727;-69
2022/11/01 04:34:03;;;;;;;5.63;4.50;;;9.00;99.90;8.90;100444.00;;;;4899285;28;99728;-69
2022/11/01 04:36:29;;;;;;;5.00;3.97;;;9.00;99.90;8.90;100446.00;;;;4900603;28;95090;-69
2022/11/01 04:38:56;;;;;;;6.90;4.87;;;9.00;99.90;8.90;100439.00;;;;4899970;28;87762;-71
2022/11/01 04:41:25;;;;;;;4.10;3.60;;;9.00;99.90;8.90;100439.00;;;;4898931;28;87870;-70
2022/11/01 04:43:56;;;;;;;4.67;3.77;;;9.00;99.90;8.90;100434.00;;;;4901643;28;87694;-70
2022/11/01 04:46:22;;;;;;;5.43;3.70;;;9.00;99.90;8.90;100435.00;;;;4901464;28;87600;-70
2022/11/01 04:48:48;;;;;;;5.27;3.70;;;9.00;99.90;8.90;100431.00;;;;4896989;28;119685;-69
2022/11/01 04:51:14;;;;;;;4.47;3.77;;;9.00;99.90;8.90;100431.00;;;;4898642;28;108831;-69
2022/11/01 04:53:40;;;;;;;3.50;3.20;;;9.00;99.90;8.90;100433.00;;;;4901081;28;87765;-70
2022/11/01 04:56:07;;;;;;;6.43;4.10;;;9.00;99.90;8.90;100434.00;;;;4898934;28;107476;-70
2022/11/01 04:58:35;;;;;;;5.17;3.73;;;9.00;99.90;8.90;100423.00;;;;4900371;28;87813;-70
2022/11/01 05:01:08;;;;;;;5.10;4.47;;;9.00;99.90;8.90;100428.00;;;;4903586;28;88084;-70
2022/11/01 05:03:34;;;;;;;6.77;5.07;;;9.00;99.90;9.00;100428.00;;;;4897861;28;110382;-70
2022/11/01 05:06:00;;;;;;;8.73;5.27;;;9.00;99.90;9.00;100421.00;;;;4899181;28;86887;-70
2022/11/01 05:08:26;;;;;;;6.00;4.43;;;9.10;99.90;9.10;100437.00;;;;4901558;28;89117;-70
2022/11/01 05:10:54;;;;;;;9.67;6.80;;;9.10;99.90;9.10;100440.00;;;;4898883;28;118306;-70
2022/11/01 05:13:19;;;;;;;6.20;5.07;;;9.20;99.90;9.20;100424.00;;;;4899750;28;88746;-70
2022/11/01 05:15:45;;;;;;;6.00;5.37;;;9.20;99.90;9.20;100430.00;;;;4897439;28;110357;-70
2022/11/01 05:18:11;;;;;;;7.90;6.00;;;9.30;99.90;9.30;100437.00;;;;4898064;28;117269;-70
2022/11/01 05:20:36;;;;;;;9.97;6.07;;;9.30;99.90;9.40;100440.00;;;;4900651;28;116867;-70
2022/11/01 05:23:04;;;;;;;7.73;4.90;;;9.40;99.90;9.40;100437.00;;;;4908340;28;109617;-69
2022/11/01 05:25:31;;;;;;;10.60;6.60;;;9.50;99.90;9.50;100419.00;;;;4900967;28;89918;-68
2022/11/01 05:28:10;;;;;;;8.33;6.20;;;9.50;99.90;9.50;100417.00;;;;4904111;28;91625;-68
2022/11/01 05:30:37;;;;;;;9.03;6.23;;;9.50;99.90;9.50;100432.00;;;;4904236;28;89353;-68
2022/11/01 05:33:04;;;;;;;8.30;6.40;;;9.50;99.90;9.50;100435.00;;;;4902328;28;88189;-69
2022/11/01 05:35:30;;;;;;;6.37;4.87;;;9.60;99.90;9.50;100444.00;;;;4899609;28;98754;-69
2022/11/01 05:37:56;;;;;;;7.63;5.03;;;9.60;99.90;9.50;100445.00;;;;4898524;28;89312;-69
2022/11/01 05:40:23;;;;;;;9.77;6.30;;;9.50;99.90;9.50;100447.00;;;;4900484;28;117666;-69
2022/11/01 05:42:49;;;;;;;9.50;5.83;;;9.60;99.90;9.50;100445.00;;;;4907379;28;88003;-69
2022/11/01 05:45:15;;;;;;;9.13;5.97;;;9.50;99.90;9.50;100444.00;;;;4904935;28;109610;-69
2022/11/01 05:47:41;;;;;;;6.50;5.73;;;9.50;99.90;9.40;100447.00;;;;4900550;28;111441;-70
2022/11/01 05:50:09;;;;;;;6.90;4.43;;;9.50;99.90;9.40;100428.00;;;;4901922;28;88199;-69
2022/11/01 05:52:35;;;;;;;7.33;4.43;;;9.80;99.90;9.30;100432.00;;;;4902656;28;87752;-69
2022/11/01 05:55:00;;;;;;;6.40;5.37;;;9.40;99.90;9.30;100435.00;;;;4897616;28;87557;-69
2022/11/01 05:57:26;;;;;;;8.77;5.13;;;9.60;99.90;9.30;100436.00;;;;4897786;28;118155;-69
2022/11/01 05:59:52;;;;;;;5.87;5.37;;;9.30;99.90;9.20;100440.00;;;;4897506;28;89000;-69
2022/11/01 06:02:17;;;;;;;8.80;4.63;;;9.30;99.90;9.20;100438.00;;;;4897894;28;110480;-69
2022/11/01 06:04:43;;;;;;;11.33;6.03;;;9.30;99.90;9.10;100439.00;;;;4901140;28;108788;-69
2022/11/01 06:07:08;;;;;;;7.40;4.03;;;9.20;99.90;9.10;100447.00;;;;4901050;28;118787;-70
2022/11/01 06:09:34;;;;;;;5.27;4.67;;;9.20;99.90;9.10;100451.00;;;;4895153;28;115585;-69
2022/11/01 06:12:00;;;;;;;5.83;5.23;;;9.20;99.90;9.00;100446.00;;;;4895875;28;109228;-69
2022/11/01 06:14:25;;;;;;;5.47;3.83;;;9.10;99.90;9.00;100448.00;;;;4898070;28;87846;-69
2022/11/01 06:16:52;;;;;;;5.07;4.53;;;9.10;99.90;9.00;100438.00;;;;4896521;28;116642;-70
2022/11/01 06:19:17;;;;;;;5.70;4.37;;;9.10;99.90;9.00;100437.00;;;;4898234;28;118152;-70
2022/11/01 06:21:43;;;;;;;12.70;5.67;;;9.00;99.90;8.90;100439.00;;;;4895682;28;109318;-70
2022/11/01 06:24:10;;;;;;;8.50;4.33;;;9.00;99.90;8.90;100445.00;;;;4899247;28;107711;-70
2022/11/01 06:26:36;;;;;;;6.77;4.70;;;9.00;99.90;8.90;100441.00;;;;4899300;28;89714;-70
2022/11/01 06:29:02;;;;;;;6.87;4.27;;;9.00;99.90;8.90;100445.00;;;;4898654;28;108403;-70
2022/11/01 06:31:28;;;;;;;5.70;4.20;;;9.00;99.90;8.80;100443.00;;;;4896296;28;107539;-70
2022/11/01 06:33:54;;;;;;;5.67;4.13;;;9.00;99.90;8.80;100449.00;;;;4897584;28;87832;-70
2022/11/01 06:36:21;;;;;;;7.37;4.47;;;8.90;99.90;8.80;100453.00;;;;4894348;28;118365;-70
2022/11/01 06:38:47;;;;;;;5.77;4.20;;;8.90;99.90;8.80;100459.00;;;;4901030;28;89146;-70
2022/11/01 06:41:13;;;;;;;6.57;4.17;;;8.90;99.90;8.80;100462.00;;;;4896065;28;100186;-70
2022/11/01 06:43:38;;;;;;;4.33;3.83;;;8.90;99.90;8.80;100464.00;;;;4896013;28;87173;-70
2022/11/01 06:46:04;;;;;;;7.90;4.80;;;8.90;99.90;8.80;100452.00;;;;4898632;28;117169;-68
2022/11/01 06:48:30;;;;;;;5.53;4.43;;;8.90;99.90;8.70;100461.00;;;;4897044;28;116927;-69
2022/11/01 06:50:56;;;;;;;9.23;4.73;;;8.80;99.90;8.70;100465.00;;;;4895117;28;107867;-69
2022/11/01 06:53:23;;;;;;;6.43;5.73;;;8.80;99.90;8.70;100473.00;;;;4895708;28;88089;-70
2022/11/01 06:55:48;;;;;;;5.27;4.27;;;8.80;99.90;8.80;100479.00;;;;4893777;28;88279;-69
2022/11/01 06:58:14;;;;;;;5.93;5.03;;;8.80;99.90;8.90;100482.00;;;;4890217;28;92765;-69
2022/11/01 07:00:40;;;;;;;5.87;4.17;;;8.90;99.90;9.00;100488.00;;;;4900722;28;110817;-68
2022/11/01 07:03:09;;;;;;;9.43;4.90;;;9.00;99.90;9.20;100491.00;;;;4912023;28;108066;-68
2022/11/01 07:05:37;;;;;;;8.03;5.63;;;9.20;99.90;9.30;100491.00;;;;4893487;28;109588;-68
2022/11/01 07:08:05;;;;;;;5.97;4.93;;;9.30;99.90;9.50;100496.00;;;;4895115;28;93456;-69
2022/11/01 07:10:31;;;;;;;7.33;4.77;;;9.50;99.90;9.70;100498.00;;;;4900320;28;87961;-69
2022/11/01 07:13:01;;;;;;;5.63;4.80;;;9.70;99.90;9.90;100503.00;;;;4894581;28;96327;-69
2022/11/01 07:15:28;;;;;;;6.53;5.63;;;9.90;99.90;10.10;100502.00;;;;4896229;28;89522;-69
2022/11/01 07:17:56;;;;;;;6.53;5.17;;;10.00;99.90;10.30;100513.00;;;;4895736;28;109254;-68
2022/11/01 07:20:22;;;;;;;9.87;6.23;;;10.30;99.90;10.50;100505.00;;;;4897272;28;87937;-69
2022/11/01 07:23:00;;;;;;;5.13;4.27;;;10.50;99.90;10.70;100510.00;;;;4901753;28;101657;-68
2022/11/01 07:25:26;;;;;;;5.70;5.20;;;10.70;99.90;10.90;100521.00;;;;4900913;28;87936;-68
2022/11/01 07:27:52;;;;;;;11.57;6.10;;;10.80;99.90;11.10;100511.00;;;;4899876;28;87953;-68
2022/11/01 07:30:18;;;;;;;8.97;5.50;;;11.00;99.90;11.30;100526.00;;;;4896927;28;108104;-68
2022/11/01 07:32:43;;;;;;;6.10;4.30;;;11.20;99.90;11.40;100519.00;;;;4896315;28;109710;-69
2022/11/01 07:35:09;;;;;;;4.93;4.47;;;11.40;99.90;11.60;100529.00;;;;4896443;28;118058;-69
2022/11/01 07:37:35;;;;;;;12.03;6.20;;;11.50;99.90;11.80;100539.00;;;;4891718;28;116805;-69
2022/11/01 07:40:02;;;;;;;8.77;4.97;;;11.70;99.90;12.00;100540.00;;;;4895301;28;88594;-70
2022/11/01 07:42:28;;;;;;;10.30;5.37;;;11.90;99.90;12.20;100546.00;;;;4881531;28;88200;-69
2022/11/01 07:44:54;;;;;;;7.27;5.73;;;12.50;99.90;12.40;100550.00;;;;4900512;28;95717;-68
2022/11/01 07:47:20;;;;;;;6.83;5.50;;;12.30;99.90;12.70;100552.00;;;;4894847;28;88706;-68
2022/11/01 07:49:46;;;;;;;9.70;5.57;;;12.50;99.90;12.90;100548.00;;;;4894722;28;101797;-68
2022/11/01 07:52:12;;;;;;;5.23;4.43;;;12.70;99.90;13.00;100555.00;;;;4898247;28;87939;-68
2022/11/01 07:54:38;;;;;;;5.60;4.70;;;13.00;99.90;13.20;100552.00;;;;4892868;28;88888;-69
2022/11/01 07:57:04;;;;;;;9.87;5.37;;;13.20;99.90;13.40;100555.00;;;;4896449;28;97286;-67
2022/11/01 07:59:30;;;;;;;8.23;5.43;;;13.30;99.90;13.60;100557.00;;;;4896390;28;110434;-67
2022/11/01 08:01:56;;;;;;;6.43;4.80;;;13.50;99.90;13.80;100561.00;;;;4892771;28;107355;-67
2022/11/01 08:04:23;;;;;;;5.83;3.60;;;13.70;99.90;13.90;100580.00;;;;4896438;28;118880;-68
2022/11/01 08:06:48;;;;;;;6.37;5.20;;;13.80;99.90;14.00;100570.00;;;;4901708;28;89521;-67
2022/11/01 08:09:14;;;;;;;7.37;4.60;;;14.00;99.90;14.20;100593.00;;;;4894460;28;110755;-68
2022/11/01 08:11:40;;;;;;;5.07;3.87;;;14.10;99.90;14.30;100587.00;;;;4894602;28;107842;-68
2022/11/01 08:14:05;;;;;;;4.80;4.30;;;14.30;99.90;14.50;100593.00;;;;4897131;28;112686;-67
2022/11/01 08:16:31;;;;;;;6.07;3.37;;;14.40;99.90;14.70;100586.00;;;;4896429;28;116989;-67
2022/11/01 08:18:57;;;;;;;9.82;3.75;;;14.50;99.90;14.90;100586.00;;;;4899015;28;110367;-67
2022/11/01 08:21:23;;;;;;;5.07;4.37;;;14.70;99.90;15.10;100582.00;;;;4899575;28;108114;-67
2022/11/01 08:23:48;;;;;;;6.40;3.42;;;14.90;99.90;15.20;100590.00;;;;4896464;28;89176;-67
2022/11/01 08:26:14;;;;;;;4.85;3.75;;;15.10;99.90;15.40;100568.00;;;;4895467;28;117201;-66
2022/11/01 08:28:40;;;;;;;6.03;4.60;;;15.20;99.90;15.50;100577.00;;;;4897361;28;89178;-66
2022/11/01 08:31:08;;;;;;;6.72;5.00;;;15.30;99.90;15.50;100577.00;;;;4894261;28;87722;-66
2022/11/01 08:33:34;;;;;;;5.05;3.72;;;15.40;99.90;15.60;100582.00;;;;4894396;28;88416;-67
2022/11/01 08:36:00;;;;;;;5.55;4.55;;;15.50;99.90;15.70;100572.00;;;;4894183;28;118128;-67
2022/11/01 08:38:26;;;;;;;9.10;5.32;;;15.60;99.90;15.80;100572.00;;;;4894449;28;88281;-66
2022/11/01 08:40:53;;;;;;;4.15;3.75;;;15.70;99.90;16.00;100587.00;;;;4898209;28;108692;-66
2022/11/01 08:43:19;;;;;;;6.20;4.43;;;15.80;99.90;16.30;100577.00;;;;4902277;28;99786;-66
2022/11/01 08:45:45;;;;;;;8.55;4.45;;;16.10;99.90;16.70;100571.00;;;;4895056;28;107401;-66
2022/11/01 08:48:11;;;;;;;12.38;5.43;;;16.40;99.90;17.10;100575.00;;;;4898313;28;87663;-66
2022/11/01 08:50:37;;;;;;;6.47;5.32;;;16.70;99.90;17.40;100574.00;;;;4896079;28;87655;-67
2022/11/01 08:53:13;;;;;;;9.80;5.38;;;17.10;99.90;17.60;100587.00;;;;4895841;28;111849;-66
2022/11/01 08:55:39;;;;;;;4.38;3.40;;;17.40;99.90;17.80;100595.00;;;;4895581;28;89301;-65
2022/11/01 08:58:06;;;;;;;5.63;3.13;;;17.60;99.90;17.90;100596.00;;;;4894178;28;88272;-66
2022/11/01 09:00:31;;;;;;;6.25;2.97;;;17.70;99.90;18.00;100601.00;;;;4897781;28;87950;-65
2022/11/01 09:02:57;;;;;;;5.40;3.42;;;17.80;99.90;18.00;100605.00;;;;4898769;28;117576;-67
2022/11/01 09:05:23;;;;;;;6.60;2.95;;;17.80;99.90;18.00;100593.00;;;;4895997;28;117616;-65
2022/11/01 09:07:48;;;;;;;3.67;2.50;;;17.80;99.90;17.90;100603.00;;;;4894435;28;108750;-66
2022/11/01 09:10:15;;;;;;;4.22;3.25;;;17.80;99.90;17.90;100597.00;;;;4891686;28;87156;-67
2022/11/01 09:12:42;;;;;;;6.28;3.33;;;17.80;99.90;17.90;100598.00;;;;4890184;28;87852;-66
2022/11/01 09:15:08;;;;;;;5.50;2.83;;;17.80;99.90;18.00;100607.00;;;;4895909;28;106938;-66
2022/11/01 09:17:34;;;;;;;2.45;2.20;;;17.80;99.90;18.00;100621.00;;;;4895724;28;89739;-67
2022/11/01 09:20:00;;;;;;;4.78;2.95;;;17.90;99.90;18.00;100621.00;;;;4894674;28;87848;-67
2022/11/01 09:22:26;;;;;;;6.25;3.60;;;17.90;99.90;18.00;100620.00;;;;4897654;28;111061;-65
2022/11/01 09:24:54;;;;;;;7.60;3.40;;;17.90;99.90;17.90;100614.00;;;;4899619;28;88066;-66
2022/11/01 09:27:19;;;;;;;6.65;3.65;;;17.80;99.90;17.90;100618.00;;;;4891257;28;87911;-65
2022/11/01 09:29:45;;;;;;;4.45;2.60;;;17.70;99.90;17.90;100623.00;;;;4894592;28;108241;-66
2022/11/01 09:32:11;;;;;;;8.30;3.10;;;17.70;99.90;17.80;100634.00;;;;4895784;28;89056;-66
2022/11/01 09:34:36;;;;;;;5.07;2.88;;;17.70;99.90;17.70;100626.00;;;;4894233;28;117490;-65
2022/11/01 09:37:03;;;;;;;3.92;2.72;;;17.70;99.90;17.60;100632.00;;;;4896791;28;110844;-65
2022/11/01 09:39:29;;;;;;;3.17;2.40;;;17.60;99.90;17.60;100627.00;;;;4896686;28;88209;-65
2022/11/01 09:42:02;;;;;;;3.85;2.83;;;17.50;99.90;17.60;100633.00;;;;4888160;28;117277;-68
2022/11/01 09:44:38;;;;;;;3.45;2.88;;;17.50;99.90;17.50;100628.00;;;;4911807;28;106269;-65
2022/11/01 09:47:11;;;;;;;6.68;2.10;;;17.50;99.90;17.50;100630.00;;;;4912323;28;87791;-66
2022/11/01 09:49:43;;;;;;;5.63;2.70;;;17.40;99.90;17.50;100635.00;;;;4893788;28;99317;-64
2022/11/01 09:52:19;;;;;;;3.15;2.28;;;17.40;99.90;17.50;100632.00;;;;4892050;28;88835;-65
2022/11/01 09:54:46;;;;;;;5.85;2.67;;;17.40;99.90;17.60;100628.00;;;;4895353;28;87790;-65
2022/11/01 09:57:26;;;;;;;4.55;1.60;;;17.40;99.90;17.60;100635.00;;;;4892704;28;87845;-65
2022/11/01 10:00:12;;;;;;;4.25;2.63;;;17.50;99.90;17.60;100638.00;;;;4914518;28;90437;-65
2022/11/01 10:03:16;;;;;;;9.75;2.70;;;17.50;99.90;17.80;100625.00;;;;4892412;28;88095;-65
2022/11/01 10:05:56;;;;;;;6.45;2.30;;;17.60;99.90;18.00;100625.00;;;;4896834;28;88317;-66
2022/11/01 10:08:50;;;;;;;6.65;2.97;;;17.80;99.90;18.20;100626.00;;;;4902874;28;88813;-66
2022/11/01 10:11:46;;;;;;;4.70;3.17;;;18.00;99.90;18.50;100631.00;;;;4896336;28;87785;-65
2022/11/01 10:14:53;;;;;;;6.85;2.95;;;18.20;99.90;18.70;100639.00;;;;4893901;28;102548;-65
2022/11/01 10:17:43;;;;;;;3.28;2.17;;;18.70;99.90;18.70;100653.00;;;;4879211;28;87931;-65
2022/11/01 10:20:11;;;;;;;5.00;2.92;;;18.50;99.90;18.70;100668.00;;;;4900836;28;87990;-65
2022/11/01 10:22:40;;;;;;;3.53;2.78;;;18.60;99.90;18.70;100667.00;;;;4900448;28;87746;-65
2022/11/01 10:25:28;;;;;;;2.55;2.20;;;18.60;99.90;18.70;100661.00;;;;4895538;28;110165;-65
2022/11/01 10:28:22;;;;;;;4.13;2.72;;;18.50;99.90;18.60;100653.00;;;;4897212;28;87380;-66
2022/11/01 10:31:00;;;;;;;5.28;2.55;;;18.50;99.90;18.60;100655.00;;;;4881494;28;87902;-65
2022/11/01 10:33:45;;;;;;;5.28;2.50;;;18.50;99.90;18.50;100660.00;;;;4912267;28;88124;-65
2022/11/01 10:36:28;;;;;;;3.22;2.83;;;18.50;99.90;18.50;100660.00;;;;4896055;28;110959;-64
2022/11/01 10:39:14;;;;;;;5.80;3.10;;;18.40;99.90;18.50;100656.00;;;;4898341;28;89616;-66
2022/11/01 10:41:48;;;;;;;7.20;3.15;;;18.10;99.90;18.50;100662.00;;;;4913644;28;87789;-65
2022/11/01 10:44:29;;;;;;;4.13;2.35;;;18.40;99.90;18.50;100648.00;;;;4915214;28;89049;-65
2022/11/01 10:46:58;;;;;;;2.42;2.22;;;18.40;99.90;18.50;100651.00;;;;4908128;28;88471;-65
2022/11/01 10:49:39;;;;;;;3.95;2.25;;;18.30;99.90;18.50;100655.00;;;;4897932;28;104606;-65
2022/11/01 10:52:09;;;;;;;6.10;2.80;;;18.40;99.90;18.50;100655.00;;;;4908419;28;95355;-65
2022/11/01 10:54:39;;;;;;;3.95;3.10;;;18.40;99.90;18.60;100656.00;;;;4900620;28;90859;-66
2022/11/01 10:57:16;;;;;;;5.47;2.85;;;18.40;99.90;18.70;100659.00;;;;4894330;28;94253;-65
2022/11/01 10:59:45;;;;;;;3.47;2.35;;;18.50;99.90;18.80;100656.00;;;;4893778;28;113984;-64
2022/11/01 11:02:24;;;;;;;1.92;1.65;;;18.60;99.90;19.00;100655.00;;;;4895073;28;98726;-66
2022/11/01 11:04:50;;;;;;;4.30;2.00;;;18.80;99.90;19.10;100647.00;;;;4895257;28;87951;-66
2022/11/01 11:07:17;;;;;;;7.22;3.03;;;18.90;99.90;19.30;100653.00;;;;4893986;28;88790;-66
2022/11/01 11:09:43;;;;;;;4.68;2.97;;;19.10;99.90;19.50;100658.00;;;;4893853;28;88802;-66
2022/11/01 11:12:16;;;;;;;4.57;2.00;;;19.30;99.90;19.60;100650.00;;;;4899386;28;109511;-66